sensor_id;sensor_type;location;lat;lon;timestamp;P1;durP1;ratioP1;P2;durP2;ratioP2
67074;SDS011;53990;50.334;18.640;2023-08-06T00:01:54;18.40;;;12.40;;
67074;SDS011;53990;50.334;18.640;2023-08-06T00:04:21;14.90;;;10.80;;
67074;SDS011;53990;50.334;18.640;2023-08-06T00:06:48;19.10;;;13.30;;
67074;SDS011;53990;50.334;18.640;2023-08-06T00:09:15;21.70;;;14.10;;
67074;SDS011;53990;50.334;18.640;2023-08-06T00:11:42;20.90;;;14.40;;
67074;SDS011;53990;50.334;18.640;2023-08-06T00:14:11;25.60;;;16.00;;
67074;SDS011;53990;50.334;18.640;2023-08-06T00:16:38;24.30;;;16.10;;
67074;SDS011;53990;50.334;18.640;2023-08-06T00:19:05;25.60;;;16.30;;
67074;SDS011;53990;50.334;18.640;2023-08-06T00:21:33;28.10;;;17.30;;
67074;SDS011;53990;50.334;18.640;2023-08-06T00:24:00;29.50;;;18.80;;
67074;SDS011;53990;50.334;18.640;2023-08-06T00:26:27;35.40;;;21.20;;
67074;SDS011;53990;50.334;18.640;2023-08-06T00:28:54;35.30;;;21.60;;
67074;SDS011;53990;50.334;18.640;2023-08-06T00:31:21;38.10;;;22.70;;
67074;SDS011;53990;50.334;18.640;2023-08-06T00:33:49;38.90;;;24.60;;
67074;SDS011;53990;50.334;18.640;2023-08-06T00:36:16;40.90;;;25.10;;
67074;SDS011;53990;50.334;18.640;2023-08-06T00:38:43;38.50;;;23.50;;
67074;SDS011;53990;50.334;18.640;2023-08-06T00:41:10;40.70;;;24.90;;
67074;SDS011;53990;50.334;18.640;2023-08-06T00:43:38;41.70;;;24.50;;
67074;SDS011;53990;50.334;18.640;2023-08-06T00:46:05;40.10;;;23.60;;
67074;SDS011;53990;50.334;18.640;2023-08-06T00:48:32;40.00;;;25.30;;
67074;SDS011;53990;50.334;18.640;2023-08-06T00:51:01;40.60;;;25.20;;
67074;SDS011;53990;50.334;18.640;2023-08-06T00:53:28;46.90;;;25.50;;
67074;SDS011;53990;50.334;18.640;2023-08-06T00:55:56;45.80;;;25.50;;
67074;SDS011;53990;50.334;18.640;2023-08-06T00:58:23;46.30;;;26.40;;
67074;SDS011;53990;50.334;18.640;2023-08-06T01:00:50;43.60;;;25.80;;
67074;SDS011;53990;50.334;18.640;2023-08-06T01:03:18;47.10;;;25.10;;
67074;SDS011;53990;50.334;18.640;2023-08-06T01:05:45;40.00;;;23.10;;
67074;SDS011;53990;50.334;18.640;2023-08-06T01:08:30;39.90;;;24.10;;
67074;SDS011;53990;50.334;18.640;2023-08-06T01:11:22;37.70;;;22.80;;
67074;SDS011;53990;50.334;18.640;2023-08-06T01:14:02;37.20;;;23.10;;
67074;SDS011;53990;50.334;18.640;2023-08-06T01:16:32;40.30;;;23.90;;
67074;SDS011;53990;50.334;18.640;2023-08-06T01:19:00;40.00;;;22.50;;
67074;SDS011;53990;50.334;18.640;2023-08-06T01:21:27;45.70;;;24.70;;
67074;SDS011;53990;50.334;18.640;2023-08-06T01:23:54;46.20;;;25.10;;
67074;SDS011;53990;50.334;18.640;2023-08-06T01:26:24;40.50;;;24.80;;
67074;SDS011;53990;50.334;18.640;2023-08-06T01:29:06;37.40;;;22.60;;
67074;SDS011;53990;50.334;18.640;2023-08-06T01:31:38;38.30;;;22.20;;
67074;SDS011;53990;50.334;18.640;2023-08-06T01:34:09;35.30;;;22.10;;
67074;SDS011;53990;50.334;18.640;2023-08-06T01:36:38;39.80;;;22.70;;
67074;SDS011;53990;50.334;18.640;2023-08-06T01:39:06;38.40;;;23.90;;
67074;SDS011;53990;50.334;18.640;2023-08-06T01:41:33;34.00;;;20.50;;
67074;SDS011;53990;50.334;18.640;2023-08-06T01:44:00;37.30;;;22.30;;
67074;SDS011;53990;50.334;18.640;2023-08-06T01:46:27;36.80;;;21.60;;
67074;SDS011;53990;50.334;18.640;2023-08-06T01:48:54;35.50;;;21.00;;
67074;SDS011;53990;50.334;18.640;2023-08-06T01:51:22;34.50;;;21.60;;
67074;SDS011;53990;50.334;18.640;2023-08-06T01:53:49;35.20;;;21.50;;
67074;SDS011;53990;50.334;18.640;2023-08-06T01:59:25;36.30;;;21.40;;
67074;SDS011;53990;50.334;18.640;2023-08-06T02:01:52;34.60;;;20.80;;
67074;SDS011;53990;50.334;18.640;2023-08-06T02:04:20;37.70;;;22.30;;
67074;SDS011;53990;50.334;18.640;2023-08-06T02:06:47;34.70;;;21.30;;
67074;SDS011;53990;50.334;18.640;2023-08-06T02:09:14;40.40;;;22.70;;
67074;SDS011;53990;50.334;18.640;2023-08-06T02:11:41;35.40;;;21.10;;
67074;SDS011;53990;50.334;18.640;2023-08-06T02:14:08;35.40;;;22.60;;
67074;SDS011;53990;50.334;18.640;2023-08-06T02:16:36;31.20;;;21.10;;
67074;SDS011;53990;50.334;18.640;2023-08-06T02:19:03;37.00;;;21.90;;
67074;SDS011;53990;50.334;18.640;2023-08-06T02:21:30;32.30;;;20.70;;
67074;SDS011;53990;50.334;18.640;2023-08-06T02:23:58;39.20;;;22.00;;
67074;SDS011;53990;50.334;18.640;2023-08-06T02:26:25;36.10;;;21.10;;
67074;SDS011;53990;50.334;18.640;2023-08-06T02:28:52;38.80;;;21.90;;
67074;SDS011;53990;50.334;18.640;2023-08-06T02:31:20;40.20;;;22.30;;
67074;SDS011;53990;50.334;18.640;2023-08-06T02:33:47;37.90;;;22.00;;
67074;SDS011;53990;50.334;18.640;2023-08-06T02:36:14;35.10;;;20.20;;
67074;SDS011;53990;50.334;18.640;2023-08-06T02:38:41;35.00;;;21.70;;
67074;SDS011;53990;50.334;18.640;2023-08-06T02:41:09;34.00;;;20.90;;
67074;SDS011;53990;50.334;18.640;2023-08-06T02:43:36;36.20;;;20.90;;
67074;SDS011;53990;50.334;18.640;2023-08-06T02:46:03;34.70;;;21.00;;
67074;SDS011;53990;50.334;18.640;2023-08-06T02:48:30;37.10;;;21.50;;
67074;SDS011;53990;50.334;18.640;2023-08-06T02:50:58;40.30;;;23.30;;
67074;SDS011;53990;50.334;18.640;2023-08-06T02:53:26;36.80;;;22.20;;
67074;SDS011;53990;50.334;18.640;2023-08-06T02:55:53;36.00;;;21.30;;
67074;SDS011;53990;50.334;18.640;2023-08-06T02:58:22;35.40;;;22.00;;
67074;SDS011;53990;50.334;18.640;2023-08-06T03:01:04;34.70;;;20.80;;
67074;SDS011;53990;50.334;18.640;2023-08-06T03:03:32;35.90;;;21.20;;
67074;SDS011;53990;50.334;18.640;2023-08-06T03:06:00;39.50;;;22.90;;
67074;SDS011;53990;50.334;18.640;2023-08-06T03:08:28;38.90;;;23.60;;
67074;SDS011;53990;50.334;18.640;2023-08-06T03:10:55;38.90;;;23.00;;
67074;SDS011;53990;50.334;18.640;2023-08-06T03:13:23;41.30;;;23.70;;
67074;SDS011;53990;50.334;18.640;2023-08-06T03:15:57;37.30;;;22.40;;
67074;SDS011;53990;50.334;18.640;2023-08-06T03:18:25;39.80;;;22.90;;
67074;SDS011;53990;50.334;18.640;2023-08-06T03:20:53;37.20;;;22.60;;
67074;SDS011;53990;50.334;18.640;2023-08-06T03:23:21;37.10;;;22.90;;
67074;SDS011;53990;50.334;18.640;2023-08-06T03:25:48;39.30;;;23.40;;
67074;SDS011;53990;50.334;18.640;2023-08-06T03:28:15;35.90;;;22.90;;
67074;SDS011;53990;50.334;18.640;2023-08-06T03:30:43;43.10;;;23.80;;
67074;SDS011;53990;50.334;18.640;2023-08-06T03:33:10;40.00;;;22.00;;
67074;SDS011;53990;50.334;18.640;2023-08-06T03:35:37;34.40;;;20.40;;
67074;SDS011;53990;50.334;18.640;2023-08-06T03:38:05;32.90;;;20.70;;
67074;SDS011;53990;50.334;18.640;2023-08-06T03:40:35;36.70;;;22.20;;
67074;SDS011;53990;50.334;18.640;2023-08-06T03:43:03;35.80;;;20.90;;
67074;SDS011;53990;50.334;18.640;2023-08-06T03:45:30;34.10;;;20.70;;
67074;SDS011;53990;50.334;18.640;2023-08-06T03:47:57;28.20;;;17.70;;
67074;SDS011;53990;50.334;18.640;2023-08-06T03:50:24;14.10;;;11.70;;
67074;SDS011;53990;50.334;18.640;2023-08-06T03:52:51;14.30;;;11.00;;
67074;SDS011;53990;50.334;18.640;2023-08-06T03:55:19;14.70;;;9.90;;
67074;SDS011;53990;50.334;18.640;2023-08-06T03:57:46;10.40;;;8.60;;
67074;SDS011;53990;50.334;18.640;2023-08-06T04:00:13;10.40;;;8.10;;
67074;SDS011;53990;50.334;18.640;2023-08-06T04:02:40;8.50;;;6.30;;
67074;SDS011;53990;50.334;18.640;2023-08-06T04:05:08;6.40;;;3.90;;
67074;SDS011;53990;50.334;18.640;2023-08-06T04:07:35;4.90;;;3.30;;
67074;SDS011;53990;50.334;18.640;2023-08-06T04:10:04;5.30;;;3.00;;
67074;SDS011;53990;50.334;18.640;2023-08-06T04:12:31;4.20;;;2.30;;
67074;SDS011;53990;50.334;18.640;2023-08-06T04:15:03;4.60;;;2.90;;
67074;SDS011;53990;50.334;18.640;2023-08-06T04:17:31;2.30;;;1.70;;
67074;SDS011;53990;50.334;18.640;2023-08-06T04:19:58;2.60;;;1.60;;
67074;SDS011;53990;50.334;18.640;2023-08-06T04:22:26;2.20;;;1.60;;
67074;SDS011;53990;50.334;18.640;2023-08-06T04:24:53;3.20;;;1.40;;
67074;SDS011;53990;50.334;18.640;2023-08-06T04:27:20;1.70;;;1.30;;
67074;SDS011;53990;50.334;18.640;2023-08-06T04:29:47;1.30;;;1.10;;
67074;SDS011;53990;50.334;18.640;2023-08-06T04:32:15;2.50;;;1.40;;
67074;SDS011;53990;50.334;18.640;2023-08-06T04:34:42;1.90;;;1.40;;
67074;SDS011;53990;50.334;18.640;2023-08-06T04:37:10;2.60;;;1.10;;
67074;SDS011;53990;50.334;18.640;2023-08-06T04:39:37;2.80;;;1.10;;
67074;SDS011;53990;50.334;18.640;2023-08-06T04:42:05;1.40;;;0.90;;
67074;SDS011;53990;50.334;18.640;2023-08-06T04:44:32;1.80;;;0.80;;
67074;SDS011;53990;50.334;18.640;2023-08-06T04:46:59;2.00;;;1.00;;
67074;SDS011;53990;50.334;18.640;2023-08-06T04:49:26;2.10;;;0.90;;
67074;SDS011;53990;50.334;18.640;2023-08-06T04:51:54;1.80;;;0.90;;
67074;SDS011;53990;50.334;18.640;2023-08-06T04:54:21;1.70;;;0.90;;
67074;SDS011;53990;50.334;18.640;2023-08-06T04:56:48;2.40;;;0.90;;
67074;SDS011;53990;50.334;18.640;2023-08-06T04:59:15;1.30;;;0.70;;
67074;SDS011;53990;50.334;18.640;2023-08-06T05:01:43;4.50;;;1.20;;
67074;SDS011;53990;50.334;18.640;2023-08-06T05:04:10;2.80;;;1.00;;
67074;SDS011;53990;50.334;18.640;2023-08-06T05:06:37;2.20;;;0.60;;
67074;SDS011;53990;50.334;18.640;2023-08-06T05:09:05;2.00;;;0.90;;
67074;SDS011;53990;50.334;18.640;2023-08-06T05:11:33;1.70;;;0.70;;
67074;SDS011;53990;50.334;18.640;2023-08-06T05:14:00;1.70;;;0.80;;
67074;SDS011;53990;50.334;18.640;2023-08-06T05:16:28;3.30;;;0.90;;
67074;SDS011;53990;50.334;18.640;2023-08-06T05:18:55;1.80;;;0.70;;
67074;SDS011;53990;50.334;18.640;2023-08-06T05:21:22;1.10;;;0.50;;
67074;SDS011;53990;50.334;18.640;2023-08-06T05:23:49;0.90;;;0.50;;
67074;SDS011;53990;50.334;18.640;2023-08-06T05:26:16;1.80;;;0.70;;
67074;SDS011;53990;50.334;18.640;2023-08-06T05:28:46;1.70;;;1.00;;
67074;SDS011;53990;50.334;18.640;2023-08-06T05:31:13;2.60;;;0.70;;
67074;SDS011;53990;50.334;18.640;2023-08-06T05:33:40;6.90;;;0.90;;
67074;SDS011;53990;50.334;18.640;2023-08-06T05:36:08;4.60;;;0.80;;
67074;SDS011;53990;50.334;18.640;2023-08-06T05:38:35;1.00;;;0.60;;
67074;SDS011;53990;50.334;18.640;2023-08-06T05:41:02;1.60;;;0.50;;
67074;SDS011;53990;50.334;18.640;2023-08-06T05:43:29;1.40;;;0.50;;
67074;SDS011;53990;50.334;18.640;2023-08-06T05:45:58;2.10;;;0.50;;
67074;SDS011;53990;50.334;18.640;2023-08-06T05:48:26;2.60;;;1.20;;
67074;SDS011;53990;50.334;18.640;2023-08-06T05:50:55;1.80;;;0.70;;
67074;SDS011;53990;50.334;18.640;2023-08-06T05:53:25;1.80;;;0.50;;
67074;SDS011;53990;50.334;18.640;2023-08-06T05:55:52;2.30;;;0.60;;
67074;SDS011;53990;50.334;18.640;2023-08-06T05:58:19;2.10;;;0.60;;
67074;SDS011;53990;50.334;18.640;2023-08-06T06:00:51;2.30;;;0.50;;
67074;SDS011;53990;50.334;18.640;2023-08-06T06:03:18;1.10;;;0.50;;
67074;SDS011;53990;50.334;18.640;2023-08-06T06:05:45;5.30;;;0.90;;
67074;SDS011;53990;50.334;18.640;2023-08-06T06:08:13;3.10;;;0.70;;
67074;SDS011;53990;50.334;18.640;2023-08-06T06:10:40;4.10;;;0.70;;
67074;SDS011;53990;50.334;18.640;2023-08-06T06:13:08;5.60;;;1.20;;
67074;SDS011;53990;50.334;18.640;2023-08-06T06:15:35;3.00;;;0.70;;
67074;SDS011;53990;50.334;18.640;2023-08-06T06:18:02;0.90;;;0.50;;
67074;SDS011;53990;50.334;18.640;2023-08-06T06:20:31;2.30;;;0.60;;
67074;SDS011;53990;50.334;18.640;2023-08-06T06:22:59;11.70;;;2.00;;
67074;SDS011;53990;50.334;18.640;2023-08-06T06:25:26;1.00;;;0.50;;
67074;SDS011;53990;50.334;18.640;2023-08-06T06:27:53;1.80;;;0.50;;
67074;SDS011;53990;50.334;18.640;2023-08-06T06:30:20;2.10;;;0.70;;
67074;SDS011;53990;50.334;18.640;2023-08-06T06:32:48;4.20;;;1.60;;
67074;SDS011;53990;50.334;18.640;2023-08-06T06:35:15;5.70;;;2.80;;
67074;SDS011;53990;50.334;18.640;2023-08-06T06:37:42;2.50;;;0.60;;
67074;SDS011;53990;50.334;18.640;2023-08-06T06:40:10;1.60;;;0.80;;
67074;SDS011;53990;50.334;18.640;2023-08-06T06:42:37;1.50;;;0.70;;
67074;SDS011;53990;50.334;18.640;2023-08-06T06:45:05;1.40;;;0.60;;
67074;SDS011;53990;50.334;18.640;2023-08-06T06:47:32;1.60;;;0.60;;
67074;SDS011;53990;50.334;18.640;2023-08-06T06:49:59;4.10;;;0.90;;
67074;SDS011;53990;50.334;18.640;2023-08-06T06:52:26;1.20;;;0.50;;
67074;SDS011;53990;50.334;18.640;2023-08-06T06:54:54;3.60;;;0.70;;
67074;SDS011;53990;50.334;18.640;2023-08-06T06:57:21;3.60;;;0.70;;
67074;SDS011;53990;50.334;18.640;2023-08-06T06:59:48;2.10;;;0.60;;
67074;SDS011;53990;50.334;18.640;2023-08-06T07:02:15;1.20;;;0.50;;
67074;SDS011;53990;50.334;18.640;2023-08-06T07:04:42;0.80;;;0.40;;
67074;SDS011;53990;50.334;18.640;2023-08-06T07:07:10;2.20;;;0.60;;
67074;SDS011;53990;50.334;18.640;2023-08-06T07:09:37;1.00;;;0.50;;
67074;SDS011;53990;50.334;18.640;2023-08-06T07:12:05;2.40;;;0.60;;
67074;SDS011;53990;50.334;18.640;2023-08-06T07:14:32;0.60;;;0.50;;
67074;SDS011;53990;50.334;18.640;2023-08-06T07:16:59;0.90;;;0.60;;
67074;SDS011;53990;50.334;18.640;2023-08-06T07:19:26;1.40;;;0.60;;
67074;SDS011;53990;50.334;18.640;2023-08-06T07:21:53;2.10;;;1.20;;
67074;SDS011;53990;50.334;18.640;2023-08-06T07:24:22;2.30;;;0.80;;
67074;SDS011;53990;50.334;18.640;2023-08-06T07:26:49;1.50;;;0.90;;
67074;SDS011;53990;50.334;18.640;2023-08-06T07:29:17;1.20;;;0.60;;
67074;SDS011;53990;50.334;18.640;2023-08-06T07:31:48;0.90;;;0.60;;
67074;SDS011;53990;50.334;18.640;2023-08-06T07:34:16;1.10;;;0.80;;
67074;SDS011;53990;50.334;18.640;2023-08-06T07:36:45;0.90;;;0.70;;
67074;SDS011;53990;50.334;18.640;2023-08-06T07:39:13;1.50;;;1.00;;
67074;SDS011;53990;50.334;18.640;2023-08-06T07:41:40;2.30;;;0.80;;
67074;SDS011;53990;50.334;18.640;2023-08-06T07:44:08;1.10;;;0.70;;
67074;SDS011;53990;50.334;18.640;2023-08-06T07:46:35;1.50;;;0.80;;
67074;SDS011;53990;50.334;18.640;2023-08-06T07:49:02;1.90;;;0.80;;
67074;SDS011;53990;50.334;18.640;2023-08-06T07:51:30;0.80;;;0.70;;
67074;SDS011;53990;50.334;18.640;2023-08-06T07:53:57;0.90;;;0.60;;
67074;SDS011;53990;50.334;18.640;2023-08-06T07:56:24;1.10;;;0.60;;
67074;SDS011;53990;50.334;18.640;2023-08-06T07:58:52;2.20;;;0.70;;
67074;SDS011;53990;50.334;18.640;2023-08-06T08:01:19;2.10;;;0.80;;
67074;SDS011;53990;50.334;18.640;2023-08-06T08:03:46;2.30;;;1.10;;
67074;SDS011;53990;50.334;18.640;2023-08-06T08:06:13;4.20;;;1.50;;
67074;SDS011;53990;50.334;18.640;2023-08-06T08:08:41;3.20;;;0.80;;
67074;SDS011;53990;50.334;18.640;2023-08-06T08:11:08;1.70;;;0.80;;
67074;SDS011;53990;50.334;18.640;2023-08-06T08:13:35;1.30;;;0.70;;
67074;SDS011;53990;50.334;18.640;2023-08-06T08:16:02;2.60;;;0.80;;
67074;SDS011;53990;50.334;18.640;2023-08-06T08:18:30;1.10;;;0.80;;
67074;SDS011;53990;50.334;18.640;2023-08-06T08:20:58;3.40;;;0.90;;
67074;SDS011;53990;50.334;18.640;2023-08-06T08:23:26;1.90;;;0.70;;
67074;SDS011;53990;50.334;18.640;2023-08-06T08:25:53;1.70;;;0.90;;
67074;SDS011;53990;50.334;18.640;2023-08-06T08:28:21;2.10;;;0.70;;
67074;SDS011;53990;50.334;18.640;2023-08-06T08:30:48;1.40;;;0.70;;
67074;SDS011;53990;50.334;18.640;2023-08-06T08:33:15;1.50;;;0.80;;
67074;SDS011;53990;50.334;18.640;2023-08-06T08:35:42;1.30;;;0.70;;
67074;SDS011;53990;50.334;18.640;2023-08-06T08:38:10;1.60;;;0.90;;
67074;SDS011;53990;50.334;18.640;2023-08-06T08:40:45;3.90;;;1.10;;
67074;SDS011;53990;50.334;18.640;2023-08-06T08:43:13;1.60;;;0.80;;
67074;SDS011;53990;50.334;18.640;2023-08-06T08:45:42;2.60;;;0.80;;
67074;SDS011;53990;50.334;18.640;2023-08-06T08:48:11;1.60;;;0.80;;
67074;SDS011;53990;50.334;18.640;2023-08-06T08:50:42;1.00;;;0.70;;
67074;SDS011;53990;50.334;18.640;2023-08-06T08:53:11;3.10;;;0.80;;
67074;SDS011;53990;50.334;18.640;2023-08-06T08:55:39;1.60;;;0.90;;
67074;SDS011;53990;50.334;18.640;2023-08-06T08:58:07;2.20;;;1.00;;
67074;SDS011;53990;50.334;18.640;2023-08-06T09:00:34;3.80;;;1.20;;
67074;SDS011;53990;50.334;18.640;2023-08-06T09:03:05;3.50;;;0.90;;
67074;SDS011;53990;50.334;18.640;2023-08-06T09:05:33;4.00;;;0.90;;
67074;SDS011;53990;50.334;18.640;2023-08-06T09:08:04;1.90;;;0.70;;
67074;SDS011;53990;50.334;18.640;2023-08-06T09:10:32;2.70;;;0.80;;
67074;SDS011;53990;50.334;18.640;2023-08-06T09:13:00;1.00;;;0.70;;
67074;SDS011;53990;50.334;18.640;2023-08-06T09:15:29;0.80;;;0.70;;
67074;SDS011;53990;50.334;18.640;2023-08-06T09:17:57;2.60;;;1.30;;
67074;SDS011;53990;50.334;18.640;2023-08-06T09:20:24;1.50;;;0.80;;
67074;SDS011;53990;50.334;18.640;2023-08-06T09:22:54;1.30;;;0.80;;
67074;SDS011;53990;50.334;18.640;2023-08-06T09:25:23;1.30;;;0.80;;
67074;SDS011;53990;50.334;18.640;2023-08-06T09:27:55;1.70;;;0.90;;
67074;SDS011;53990;50.334;18.640;2023-08-06T09:30:33;1.60;;;0.90;;
67074;SDS011;53990;50.334;18.640;2023-08-06T09:33:01;1.50;;;0.70;;
67074;SDS011;53990;50.334;18.640;2023-08-06T09:35:29;1.70;;;0.90;;
67074;SDS011;53990;50.334;18.640;2023-08-06T09:38:08;0.60;;;0.60;;
67074;SDS011;53990;50.334;18.640;2023-08-06T09:40:38;0.60;;;0.60;;
67074;SDS011;53990;50.334;18.640;2023-08-06T09:43:06;0.80;;;0.60;;
67074;SDS011;53990;50.334;18.640;2023-08-06T09:45:37;1.00;;;0.70;;
67074;SDS011;53990;50.334;18.640;2023-08-06T09:48:06;1.50;;;0.80;;
67074;SDS011;53990;50.334;18.640;2023-08-06T09:50:36;1.00;;;0.60;;
67074;SDS011;53990;50.334;18.640;2023-08-06T09:53:05;2.50;;;0.70;;
67074;SDS011;53990;50.334;18.640;2023-08-06T09:55:33;1.00;;;0.80;;
67074;SDS011;53990;50.334;18.640;2023-08-06T09:58:01;1.00;;;0.70;;
67074;SDS011;53990;50.334;18.640;2023-08-06T10:00:28;1.90;;;0.80;;
67074;SDS011;53990;50.334;18.640;2023-08-06T10:03:01;2.90;;;2.00;;
67074;SDS011;53990;50.334;18.640;2023-08-06T10:05:31;2.50;;;1.10;;
67074;SDS011;53990;50.334;18.640;2023-08-06T10:07:59;2.20;;;1.50;;
67074;SDS011;53990;50.334;18.640;2023-08-06T10:10:27;1.30;;;0.80;;
67074;SDS011;53990;50.334;18.640;2023-08-06T10:12:56;1.40;;;0.90;;
67074;SDS011;53990;50.334;18.640;2023-08-06T10:15:27;1.30;;;0.90;;
67074;SDS011;53990;50.334;18.640;2023-08-06T10:17:57;1.60;;;1.00;;
67074;SDS011;53990;50.334;18.640;2023-08-06T10:20:25;1.30;;;1.20;;
67074;SDS011;53990;50.334;18.640;2023-08-06T10:23:02;1.30;;;1.00;;
67074;SDS011;53990;50.334;18.640;2023-08-06T10:25:31;1.70;;;0.70;;
67074;SDS011;53990;50.334;18.640;2023-08-06T10:28:00;3.80;;;1.80;;
67074;SDS011;53990;50.334;18.640;2023-08-06T10:30:30;1.30;;;0.70;;
67074;SDS011;53990;50.334;18.640;2023-08-06T10:33:03;2.50;;;0.80;;
67074;SDS011;53990;50.334;18.640;2023-08-06T10:35:43;0.90;;;0.70;;
67074;SDS011;53990;50.334;18.640;2023-08-06T10:38:13;0.90;;;0.70;;
67074;SDS011;53990;50.334;18.640;2023-08-06T10:41:15;2.20;;;1.00;;
67074;SDS011;53990;50.334;18.640;2023-08-06T10:43:42;1.50;;;0.90;;
67074;SDS011;53990;50.334;18.640;2023-08-06T10:46:22;1.00;;;0.60;;
67074;SDS011;53990;50.334;18.640;2023-08-06T10:48:50;1.20;;;0.90;;
67074;SDS011;53990;50.334;18.640;2023-08-06T10:51:17;1.10;;;0.80;;
67074;SDS011;53990;50.334;18.640;2023-08-06T10:53:48;2.20;;;1.20;;
67074;SDS011;53990;50.334;18.640;2023-08-06T10:56:18;1.70;;;0.90;;
67074;SDS011;53990;50.334;18.640;2023-08-06T10:58:46;1.40;;;0.90;;
67074;SDS011;53990;50.334;18.640;2023-08-06T11:01:14;1.90;;;0.60;;
67074;SDS011;53990;50.334;18.640;2023-08-06T11:03:45;1.60;;;1.00;;
67074;SDS011;53990;50.334;18.640;2023-08-06T11:06:17;3.40;;;1.10;;
67074;SDS011;53990;50.334;18.640;2023-08-06T11:08:50;6.80;;;4.00;;
67074;SDS011;53990;50.334;18.640;2023-08-06T11:11:18;1.80;;;1.20;;
67074;SDS011;53990;50.334;18.640;2023-08-06T11:13:50;2.00;;;1.00;;
67074;SDS011;53990;50.334;18.640;2023-08-06T11:16:19;2.30;;;1.40;;
67074;SDS011;53990;50.334;18.640;2023-08-06T11:18:46;1.90;;;1.00;;
67074;SDS011;53990;50.334;18.640;2023-08-06T11:21:19;2.60;;;1.00;;
67074;SDS011;53990;50.334;18.640;2023-08-06T11:23:46;1.70;;;1.00;;
67074;SDS011;53990;50.334;18.640;2023-08-06T11:26:19;1.30;;;0.80;;
67074;SDS011;53990;50.334;18.640;2023-08-06T11:28:47;1.40;;;1.20;;
67074;SDS011;53990;50.334;18.640;2023-08-06T11:31:21;1.10;;;0.70;;
67074;SDS011;53990;50.334;18.640;2023-08-06T11:33:55;2.40;;;0.80;;
67074;SDS011;53990;50.334;18.640;2023-08-06T11:36:33;2.80;;;1.30;;
67074;SDS011;53990;50.334;18.640;2023-08-06T11:39:01;1.00;;;0.70;;
67074;SDS011;53990;50.334;18.640;2023-08-06T11:41:30;0.80;;;0.70;;
67074;SDS011;53990;50.334;18.640;2023-08-06T11:43:58;1.40;;;0.80;;
67074;SDS011;53990;50.334;18.640;2023-08-06T11:46:26;1.40;;;0.80;;
67074;SDS011;53990;50.334;18.640;2023-08-06T11:48:54;1.00;;;0.80;;
67074;SDS011;53990;50.334;18.640;2023-08-06T11:51:23;2.00;;;0.70;;
67074;SDS011;53990;50.334;18.640;2023-08-06T11:53:56;1.30;;;0.90;;
67074;SDS011;53990;50.334;18.640;2023-08-06T11:56:27;1.80;;;0.90;;
67074;SDS011;53990;50.334;18.640;2023-08-06T11:58:55;1.60;;;1.00;;
67074;SDS011;53990;50.334;18.640;2023-08-06T12:01:22;1.40;;;1.10;;
67074;SDS011;53990;50.334;18.640;2023-08-06T12:03:49;3.70;;;1.30;;
67074;SDS011;53990;50.334;18.640;2023-08-06T12:06:17;1.90;;;1.30;;
67074;SDS011;53990;50.334;18.640;2023-08-06T12:08:44;2.40;;;1.40;;
67074;SDS011;53990;50.334;18.640;2023-08-06T12:11:11;2.60;;;1.40;;
67074;SDS011;53990;50.334;18.640;2023-08-06T12:13:39;2.50;;;1.40;;
67074;SDS011;53990;50.334;18.640;2023-08-06T12:16:06;2.70;;;1.60;;
67074;SDS011;53990;50.334;18.640;2023-08-06T12:18:33;3.30;;;1.90;;
67074;SDS011;53990;50.334;18.640;2023-08-06T12:21:00;2.00;;;1.20;;
67074;SDS011;53990;50.334;18.640;2023-08-06T12:23:27;2.50;;;1.40;;
67074;SDS011;53990;50.334;18.640;2023-08-06T12:25:55;3.40;;;1.30;;
67074;SDS011;53990;50.334;18.640;2023-08-06T12:28:22;2.80;;;1.20;;
67074;SDS011;53990;50.334;18.640;2023-08-06T12:30:49;3.20;;;1.60;;
67074;SDS011;53990;50.334;18.640;2023-08-06T12:33:18;2.50;;;1.30;;
67074;SDS011;53990;50.334;18.640;2023-08-06T12:35:45;3.50;;;1.30;;
67074;SDS011;53990;50.334;18.640;2023-08-06T12:38:13;2.80;;;1.10;;
67074;SDS011;53990;50.334;18.640;2023-08-06T12:40:40;2.60;;;1.00;;
67074;SDS011;53990;50.334;18.640;2023-08-06T12:43:08;2.90;;;1.20;;
67074;SDS011;53990;50.334;18.640;2023-08-06T12:45:35;2.30;;;1.00;;
67074;SDS011;53990;50.334;18.640;2023-08-06T12:48:03;1.60;;;0.90;;
67074;SDS011;53990;50.334;18.640;2023-08-06T12:50:32;1.20;;;0.70;;
67074;SDS011;53990;50.334;18.640;2023-08-06T12:53:00;0.80;;;0.60;;
67074;SDS011;53990;50.334;18.640;2023-08-06T12:55:27;1.70;;;0.70;;
67074;SDS011;53990;50.334;18.640;2023-08-06T12:57:54;1.30;;;0.60;;
67074;SDS011;53990;50.334;18.640;2023-08-06T13:00:22;1.60;;;1.10;;
67074;SDS011;53990;50.334;18.640;2023-08-06T13:02:49;0.80;;;0.70;;
67074;SDS011;53990;50.334;18.640;2023-08-06T13:05:16;1.00;;;0.80;;
67074;SDS011;53990;50.334;18.640;2023-08-06T13:07:43;0.50;;;0.50;;
67074;SDS011;53990;50.334;18.640;2023-08-06T13:10:10;0.60;;;0.60;;
67074;SDS011;53990;50.334;18.640;2023-08-06T13:12:38;0.80;;;0.60;;
67074;SDS011;53990;50.334;18.640;2023-08-06T13:15:05;0.60;;;0.50;;
67074;SDS011;53990;50.334;18.640;2023-08-06T13:17:33;1.10;;;0.70;;
67074;SDS011;53990;50.334;18.640;2023-08-06T13:20:00;0.90;;;0.70;;
67074;SDS011;53990;50.334;18.640;2023-08-06T13:22:27;0.60;;;0.60;;
67074;SDS011;53990;50.334;18.640;2023-08-06T13:24:54;1.80;;;0.50;;
67074;SDS011;53990;50.334;18.640;2023-08-06T13:27:21;1.80;;;0.80;;
67074;SDS011;53990;50.334;18.640;2023-08-06T13:29:49;0.80;;;0.60;;
67074;SDS011;53990;50.334;18.640;2023-08-06T13:32:19;0.70;;;0.60;;
67074;SDS011;53990;50.334;18.640;2023-08-06T13:34:46;0.50;;;0.50;;
67074;SDS011;53990;50.334;18.640;2023-08-06T13:37:13;0.70;;;0.60;;
67074;SDS011;53990;50.334;18.640;2023-08-06T13:39:45;1.30;;;0.70;;
67074;SDS011;53990;50.334;18.640;2023-08-06T13:42:12;1.20;;;0.90;;
67074;SDS011;53990;50.334;18.640;2023-08-06T13:44:39;0.80;;;0.70;;
67074;SDS011;53990;50.334;18.640;2023-08-06T13:47:06;0.60;;;0.50;;
67074;SDS011;53990;50.334;18.640;2023-08-06T13:49:34;2.80;;;2.00;;
67074;SDS011;53990;50.334;18.640;2023-08-06T13:52:01;0.80;;;0.60;;
67074;SDS011;53990;50.334;18.640;2023-08-06T13:54:28;1.00;;;0.60;;
67074;SDS011;53990;50.334;18.640;2023-08-06T13:56:55;1.00;;;0.60;;
67074;SDS011;53990;50.334;18.640;2023-08-06T13:59:22;1.10;;;0.60;;
67074;SDS011;53990;50.334;18.640;2023-08-06T14:01:51;1.30;;;0.70;;
67074;SDS011;53990;50.334;18.640;2023-08-06T14:04:20;1.60;;;0.80;;
67074;SDS011;53990;50.334;18.640;2023-08-06T14:06:48;1.60;;;0.60;;
67074;SDS011;53990;50.334;18.640;2023-08-06T14:09:15;0.90;;;0.70;;
67074;SDS011;53990;50.334;18.640;2023-08-06T14:11:45;2.00;;;1.20;;
67074;SDS011;53990;50.334;18.640;2023-08-06T14:14:12;1.10;;;0.70;;
67074;SDS011;53990;50.334;18.640;2023-08-06T14:16:40;1.40;;;0.70;;
67074;SDS011;53990;50.334;18.640;2023-08-06T14:19:08;4.00;;;1.50;;
67074;SDS011;53990;50.334;18.640;2023-08-06T14:21:35;0.90;;;0.70;;
67074;SDS011;53990;50.334;18.640;2023-08-06T14:24:02;2.40;;;1.10;;
67074;SDS011;53990;50.334;18.640;2023-08-06T14:26:30;1.60;;;0.90;;
67074;SDS011;53990;50.334;18.640;2023-08-06T14:28:57;3.00;;;1.20;;
67074;SDS011;53990;50.334;18.640;2023-08-06T14:31:24;2.10;;;1.20;;
67074;SDS011;53990;50.334;18.640;2023-08-06T14:33:51;2.90;;;1.10;;
67074;SDS011;53990;50.334;18.640;2023-08-06T14:36:19;5.30;;;1.60;;
67074;SDS011;53990;50.334;18.640;2023-08-06T14:38:47;2.30;;;1.20;;